sensor_id;sensor_type;location;lat;lon;timestamp;P1;durP1;ratioP1;P2;durP2;ratioP2
21110;SDS011;10713;51.912;4.494;2024-01-10T00:01:06;1.67;;;1.08;;
21110;SDS011;10713;51.912;4.494;2024-01-10T00:03:32;3.08;;;1.40;;
21110;SDS011;10713;51.912;4.494;2024-01-10T00:05:57;1.05;;;0.90;;
21110;SDS011;10713;51.912;4.494;2024-01-10T00:08:23;1.38;;;0.65;;
21110;SDS011;10713;51.912;4.494;2024-01-10T00:10:48;0.55;;;0.55;;
21110;SDS011;10713;51.912;4.494;2024-01-10T00:13:13;2.10;;;1.10;;
21110;SDS011;10713;51.912;4.494;2024-01-10T00:15:39;1.30;;;1.05;;
21110;SDS011;10713;51.912;4.494;2024-01-10T00:18:04;0.75;;;0.73;;
21110;SDS011;10713;51.912;4.494;2024-01-10T00:20:30;0.63;;;0.63;;
21110;SDS011;10713;51.912;4.494;2024-01-10T00:22:55;3.95;;;0.60;;
21110;SDS011;10713;51.912;4.494;2024-01-10T00:25:20;3.15;;;0.80;;
21110;SDS011;10713;51.912;4.494;2024-01-10T00:27:45;1.50;;;0.60;;
21110;SDS011;10713;51.912;4.494;2024-01-10T00:30:11;2.72;;;1.10;;
21110;SDS011;10713;51.912;4.494;2024-01-10T00:32:36;2.13;;;1.38;;
21110;SDS011;10713;51.912;4.494;2024-01-10T00:35:02;2.05;;;0.98;;
21110;SDS011;10713;51.912;4.494;2024-01-10T00:37:28;2.80;;;0.98;;
21110;SDS011;10713;51.912;4.494;2024-01-10T00:39:53;3.30;;;1.10;;
21110;SDS011;10713;51.912;4.494;2024-01-10T00:42:18;0.40;;;0.40;;
21110;SDS011;10713;51.912;4.494;2024-01-10T00:44:44;1.17;;;1.08;;
21110;SDS011;10713;51.912;4.494;2024-01-10T00:47:10;1.38;;;1.00;;
21110;SDS011;10713;51.912;4.494;2024-01-10T00:49:36;0.70;;;0.70;;
21110;SDS011;10713;51.912;4.494;2024-01-10T00:52:01;1.08;;;0.98;;
21110;SDS011;10713;51.912;4.494;2024-01-10T00:54:27;1.17;;;0.80;;
21110;SDS011;10713;51.912;4.494;2024-01-10T00:56:52;1.25;;;1.15;;
21110;SDS011;10713;51.912;4.494;2024-01-10T00:59:17;1.98;;;1.52;;
21110;SDS011;10713;51.912;4.494;2024-01-10T01:01:43;5.07;;;1.85;;
21110;SDS011;10713;51.912;4.494;2024-01-10T01:04:08;1.75;;;1.05;;
21110;SDS011;10713;51.912;4.494;2024-01-10T01:06:33;1.55;;;0.85;;
21110;SDS011;10713;51.912;4.494;2024-01-10T01:08:59;1.20;;;1.02;;
21110;SDS011;10713;51.912;4.494;2024-01-10T01:11:24;1.40;;;0.95;;
21110;SDS011;10713;51.912;4.494;2024-01-10T01:13:50;3.30;;;1.05;;
21110;SDS011;10713;51.912;4.494;2024-01-10T01:16:15;1.13;;;1.02;;
21110;SDS011;10713;51.912;4.494;2024-01-10T01:18:41;1.73;;;1.25;;
21110;SDS011;10713;51.912;4.494;2024-01-10T01:21:10;0.60;;;0.60;;
21110;SDS011;10713;51.912;4.494;2024-01-10T01:23:36;1.10;;;0.93;;
21110;SDS011;10713;51.912;4.494;2024-01-10T01:26:01;1.15;;;1.02;;
21110;SDS011;10713;51.912;4.494;2024-01-10T01:28:26;2.38;;;1.00;;
21110;SDS011;10713;51.912;4.494;2024-01-10T01:30:52;3.95;;;1.33;;
21110;SDS011;10713;51.912;4.494;2024-01-10T01:33:17;1.98;;;1.52;;
21110;SDS011;10713;51.912;4.494;2024-01-10T01:35:43;0.90;;;0.90;;
21110;SDS011;10713;51.912;4.494;2024-01-10T01:38:08;1.25;;;1.08;;
21110;SDS011;10713;51.912;4.494;2024-01-10T01:40:33;2.95;;;1.25;;
21110;SDS011;10713;51.912;4.494;2024-01-10T01:42:59;1.55;;;1.23;;
21110;SDS011;10713;51.912;4.494;2024-01-10T01:45:24;3.33;;;1.20;;
21110;SDS011;10713;51.912;4.494;2024-01-10T01:47:49;0.77;;;0.77;;
21110;SDS011;10713;51.912;4.494;2024-01-10T01:50:15;0.98;;;0.80;;
21110;SDS011;10713;51.912;4.494;2024-01-10T01:52:41;1.13;;;1.02;;
21110;SDS011;10713;51.912;4.494;2024-01-10T01:55:08;1.30;;;1.10;;
21110;SDS011;10713;51.912;4.494;2024-01-10T01:57:36;0.93;;;0.85;;
21110;SDS011;10713;51.912;4.494;2024-01-10T02:00:02;3.53;;;0.95;;
21110;SDS011;10713;51.912;4.494;2024-01-10T02:02:29;0.98;;;0.98;;
21110;SDS011;10713;51.912;4.494;2024-01-10T02:04:55;1.98;;;1.30;;
21110;SDS011;10713;51.912;4.494;2024-01-10T02:07:21;2.55;;;1.25;;
21110;SDS011;10713;51.912;4.494;2024-01-10T02:09:47;0.80;;;0.80;;
21110;SDS011;10713;51.912;4.494;2024-01-10T02:12:12;0.98;;;0.98;;
21110;SDS011;10713;51.912;4.494;2024-01-10T02:14:38;1.35;;;1.20;;
21110;SDS011;10713;51.912;4.494;2024-01-10T02:17:03;1.75;;;1.30;;
21110;SDS011;10713;51.912;4.494;2024-01-10T02:19:29;0.60;;;0.60;;
21110;SDS011;10713;51.912;4.494;2024-01-10T02:21:56;2.00;;;1.27;;
21110;SDS011;10713;51.912;4.494;2024-01-10T02:24:21;1.88;;;1.08;;
21110;SDS011;10713;51.912;4.494;2024-01-10T02:26:47;1.27;;;0.60;;
21110;SDS011;10713;51.912;4.494;2024-01-10T02:29:12;1.23;;;0.68;;
21110;SDS011;10713;51.912;4.494;2024-01-10T02:31:38;2.22;;;1.65;;
21110;SDS011;10713;51.912;4.494;2024-01-10T02:34:03;1.13;;;0.85;;
21110;SDS011;10713;51.912;4.494;2024-01-10T02:36:29;1.23;;;1.13;;
21110;SDS011;10713;51.912;4.494;2024-01-10T02:38:54;0.85;;;0.80;;
21110;SDS011;10713;51.912;4.494;2024-01-10T02:41:20;2.50;;;2.05;;
21110;SDS011;10713;51.912;4.494;2024-01-10T02:43:45;3.00;;;1.38;;
21110;SDS011;10713;51.912;4.494;2024-01-10T02:46:11;2.38;;;1.50;;
21110;SDS011;10713;51.912;4.494;2024-01-10T02:48:36;1.20;;;1.10;;
21110;SDS011;10713;51.912;4.494;2024-01-10T02:51:01;0.85;;;0.85;;
21110;SDS011;10713;51.912;4.494;2024-01-10T02:53:27;2.25;;;1.88;;
21110;SDS011;10713;51.912;4.494;2024-01-10T02:55:52;1.25;;;0.90;;
21110;SDS011;10713;51.912;4.494;2024-01-10T02:58:18;0.98;;;0.93;;
21110;SDS011;10713;51.912;4.494;2024-01-10T03:00:43;3.25;;;1.58;;
21110;SDS011;10713;51.912;4.494;2024-01-10T03:03:09;1.75;;;1.17;;
21110;SDS011;10713;51.912;4.494;2024-01-10T03:05:34;1.48;;;1.15;;
21110;SDS011;10713;51.912;4.494;2024-01-10T03:07:59;3.30;;;1.75;;
21110;SDS011;10713;51.912;4.494;2024-01-10T03:10:27;0.70;;;0.70;;
21110;SDS011;10713;51.912;4.494;2024-01-10T03:12:52;1.33;;;0.90;;
21110;SDS011;10713;51.912;4.494;2024-01-10T03:15:18;1.75;;;1.05;;
21110;SDS011;10713;51.912;4.494;2024-01-10T03:17:43;1.15;;;0.90;;
21110;SDS011;10713;51.912;4.494;2024-01-10T03:20:08;2.05;;;1.77;;
21110;SDS011;10713;51.912;4.494;2024-01-10T03:22:34;2.65;;;1.15;;
21110;SDS011;10713;51.912;4.494;2024-01-10T03:25:00;1.70;;;1.05;;
21110;SDS011;10713;51.912;4.494;2024-01-10T03:27:25;2.03;;;1.30;;
21110;SDS011;10713;51.912;4.494;2024-01-10T03:29:51;2.42;;;0.70;;
21110;SDS011;10713;51.912;4.494;2024-01-10T03:32:16;2.58;;;1.60;;
21110;SDS011;10713;51.912;4.494;2024-01-10T03:34:41;2.03;;;1.13;;
21110;SDS011;10713;51.912;4.494;2024-01-10T03:37:07;1.25;;;1.15;;
21110;SDS011;10713;51.912;4.494;2024-01-10T03:39:33;1.98;;;1.10;;
21110;SDS011;10713;51.912;4.494;2024-01-10T03:41:58;1.50;;;1.13;;
21110;SDS011;10713;51.912;4.494;2024-01-10T03:44:24;1.25;;;1.15;;
21110;SDS011;10713;51.912;4.494;2024-01-10T03:46:49;4.95;;;0.98;;
21110;SDS011;10713;51.912;4.494;2024-01-10T03:49:14;1.38;;;0.80;;
21110;SDS011;10713;51.912;4.494;2024-01-10T03:51:40;3.40;;;1.55;;
21110;SDS011;10713;51.912;4.494;2024-01-10T03:54:05;0.88;;;0.88;;
21110;SDS011;10713;51.912;4.494;2024-01-10T03:56:31;1.67;;;1.10;;
21110;SDS011;10713;51.912;4.494;2024-01-10T03:58:56;1.20;;;0.80;;
21110;SDS011;10713;51.912;4.494;2024-01-10T04:01:22;0.93;;;0.85;;
21110;SDS011;10713;51.912;4.494;2024-01-10T04:03:48;2.20;;;1.10;;
21110;SDS011;10713;51.912;4.494;2024-01-10T04:06:14;2.25;;;1.80;;
21110;SDS011;10713;51.912;4.494;2024-01-10T04:08:39;4.97;;;1.45;;
21110;SDS011;10713;51.912;4.494;2024-01-10T04:11:04;1.55;;;0.80;;
21110;SDS011;10713;51.912;4.494;2024-01-10T04:13:30;8.27;;;0.98;;
21110;SDS011;10713;51.912;4.494;2024-01-10T04:15:55;1.58;;;1.27;;
21110;SDS011;10713;51.912;4.494;2024-01-10T04:18:20;1.52;;;0.95;;
21110;SDS011;10713;51.912;4.494;2024-01-10T04:20:47;1.83;;;1.20;;
21110;SDS011;10713;51.912;4.494;2024-01-10T04:23:13;0.98;;;0.88;;
21110;SDS011;10713;51.912;4.494;2024-01-10T04:25:38;3.25;;;1.45;;
21110;SDS011;10713;51.912;4.494;2024-01-10T04:28:04;1.88;;;1.13;;
21110;SDS011;10713;51.912;4.494;2024-01-10T04:30:29;2.03;;;0.98;;
21110;SDS011;10713;51.912;4.494;2024-01-10T04:32:55;1.92;;;1.05;;
21110;SDS011;10713;51.912;4.494;2024-01-10T04:35:20;1.55;;;1.05;;
21110;SDS011;10713;51.912;4.494;2024-01-10T04:37:45;4.57;;;2.05;;
21110;SDS011;10713;51.912;4.494;2024-01-10T04:40:11;2.55;;;1.13;;
21110;SDS011;10713;51.912;4.494;2024-01-10T04:42:37;0.70;;;0.70;;
21110;SDS011;10713;51.912;4.494;2024-01-10T04:45:02;2.65;;;1.48;;
21110;SDS011;10713;51.912;4.494;2024-01-10T04:47:28;2.15;;;1.02;;
21110;SDS011;10713;51.912;4.494;2024-01-10T04:49:53;1.77;;;1.08;;
21110;SDS011;10713;51.912;4.494;2024-01-10T04:52:18;1.73;;;1.58;;
21110;SDS011;10713;51.912;4.494;2024-01-10T04:54:44;15.40;;;1.60;;
21110;SDS011;10713;51.912;4.494;2024-01-10T04:57:09;1.58;;;0.93;;
21110;SDS011;10713;51.912;4.494;2024-01-10T04:59:34;1.50;;;1.30;;
21110;SDS011;10713;51.912;4.494;2024-01-10T05:02:00;7.38;;;1.98;;
21110;SDS011;10713;51.912;4.494;2024-01-10T05:04:25;1.35;;;1.15;;
21110;SDS011;10713;51.912;4.494;2024-01-10T05:06:50;2.40;;;1.05;;
21110;SDS011;10713;51.912;4.494;2024-01-10T05:09:16;1.23;;;0.98;;
21110;SDS011;10713;51.912;4.494;2024-01-10T05:11:42;0.70;;;0.70;;
21110;SDS011;10713;51.912;4.494;2024-01-10T05:14:07;2.53;;;1.45;;
21110;SDS011;10713;51.912;4.494;2024-01-10T05:16:33;3.78;;;1.35;;
21110;SDS011;10713;51.912;4.494;2024-01-10T05:19:00;2.33;;;1.50;;
21110;SDS011;10713;51.912;4.494;2024-01-10T05:21:26;1.83;;;1.38;;
21110;SDS011;10713;51.912;4.494;2024-01-10T05:23:51;0.80;;;0.80;;
21110;SDS011;10713;51.912;4.494;2024-01-10T05:26:17;0.75;;;0.75;;
21110;SDS011;10713;51.912;4.494;2024-01-10T05:28:42;1.70;;;1.60;;
21110;SDS011;10713;51.912;4.494;2024-01-10T05:31:07;2.20;;;1.90;;
21110;SDS011;10713;51.912;4.494;2024-01-10T05:33:33;2.65;;;1.52;;
21110;SDS011;10713;51.912;4.494;2024-01-10T05:35:58;1.90;;;1.02;;
21110;SDS011;10713;51.912;4.494;2024-01-10T05:38:24;4.28;;;0.88;;
21110;SDS011;10713;51.912;4.494;2024-01-10T05:40:49;2.75;;;1.33;;
21110;SDS011;10713;51.912;4.494;2024-01-10T05:43:14;2.75;;;1.70;;
21110;SDS011;10713;51.912;4.494;2024-01-10T05:45:40;2.65;;;1.65;;
21110;SDS011;10713;51.912;4.494;2024-01-10T05:48:06;2.80;;;1.60;;
21110;SDS011;10713;51.912;4.494;2024-01-10T05:50:31;3.67;;;1.35;;
21110;SDS011;10713;51.912;4.494;2024-01-10T05:52:57;1.77;;;1.30;;
21110;SDS011;10713;51.912;4.494;2024-01-10T05:55:22;0.95;;;0.95;;
21110;SDS011;10713;51.912;4.494;2024-01-10T05:57:48;3.72;;;1.70;;
21110;SDS011;10713;51.912;4.494;2024-01-10T06:00:14;3.17;;;1.27;;
21110;SDS011;10713;51.912;4.494;2024-01-10T06:02:41;0.88;;;0.80;;
21110;SDS011;10713;51.912;4.494;2024-01-10T06:05:07;5.88;;;1.10;;
21110;SDS011;10713;51.912;4.494;2024-01-10T06:07:34;3.08;;;1.27;;
21110;SDS011;10713;51.912;4.494;2024-01-10T06:10:00;1.25;;;1.15;;
21110;SDS011;10713;51.912;4.494;2024-01-10T06:12:26;1.20;;;1.10;;
21110;SDS011;10713;51.912;4.494;2024-01-10T06:14:52;1.17;;;0.95;;
21110;SDS011;10713;51.912;4.494;2024-01-10T06:17:17;2.30;;;1.17;;
21110;SDS011;10713;51.912;4.494;2024-01-10T06:19:43;1.33;;;1.05;;
21110;SDS011;10713;51.912;4.494;2024-01-10T06:22:09;1.30;;;1.20;;
21110;SDS011;10713;51.912;4.494;2024-01-10T06:24:36;0.80;;;0.80;;
21110;SDS011;10713;51.912;4.494;2024-01-10T06:27:02;2.22;;;1.45;;
21110;SDS011;10713;51.912;4.494;2024-01-10T06:29:29;3.88;;;1.10;;
21110;SDS011;10713;51.912;4.494;2024-01-10T06:31:54;3.65;;;1.73;;
21110;SDS011;10713;51.912;4.494;2024-01-10T06:34:21;3.10;;;1.45;;
21110;SDS011;10713;51.912;4.494;2024-01-10T06:36:47;1.30;;;1.05;;
21110;SDS011;10713;51.912;4.494;2024-01-10T06:39:12;1.45;;;1.35;;
21110;SDS011;10713;51.912;4.494;2024-01-10T06:41:38;5.05;;;1.85;;
21110;SDS011;10713;51.912;4.494;2024-01-10T06:44:04;2.58;;;1.30;;
21110;SDS011;10713;51.912;4.494;2024-01-10T06:46:29;1.40;;;1.30;;
21110;SDS011;10713;51.912;4.494;2024-01-10T06:48:57;4.38;;;1.50;;
21110;SDS011;10713;51.912;4.494;2024-01-10T06:51:22;1.67;;;1.58;;
21110;SDS011;10713;51.912;4.494;2024-01-10T06:53:48;2.13;;;1.40;;
21110;SDS011;10713;51.912;4.494;2024-01-10T06:56:13;2.30;;;1.55;;
21110;SDS011;10713;51.912;4.494;2024-01-10T06:58:39;2.67;;;1.58;;
21110;SDS011;10713;51.912;4.494;2024-01-10T07:01:04;2.00;;;1.05;;
21110;SDS011;10713;51.912;4.494;2024-01-10T07:03:31;5.35;;;1.48;;
21110;SDS011;10713;51.912;4.494;2024-01-10T07:05:57;2.78;;;1.35;;
21110;SDS011;10713;51.912;4.494;2024-01-10T07:08:23;4.47;;;1.52;;
21110;SDS011;10713;51.912;4.494;2024-01-10T07:10:50;4.35;;;1.50;;
21110;SDS011;10713;51.912;4.494;2024-01-10T07:13:15;4.18;;;1.95;;
21110;SDS011;10713;51.912;4.494;2024-01-10T07:15:41;5.30;;;2.30;;
21110;SDS011;10713;51.912;4.494;2024-01-10T07:18:06;1.27;;;1.17;;
21110;SDS011;10713;51.912;4.494;2024-01-10T07:20:31;4.25;;;1.98;;
21110;SDS011;10713;51.912;4.494;2024-01-10T07:22:57;1.98;;;1.30;;
21110;SDS011;10713;51.912;4.494;2024-01-10T07:25:24;2.90;;;1.73;;
21110;SDS011;10713;51.912;4.494;2024-01-10T07:27:50;1.52;;;1.10;;
21110;SDS011;10713;51.912;4.494;2024-01-10T07:30:16;4.95;;;2.53;;
21110;SDS011;10713;51.912;4.494;2024-01-10T07:32:42;2.83;;;1.50;;
21110;SDS011;10713;51.912;4.494;2024-01-10T07:35:08;4.15;;;1.40;;
21110;SDS011;10713;51.912;4.494;2024-01-10T07:37:40;4.53;;;1.92;;
21110;SDS011;10713;51.912;4.494;2024-01-10T07:40:06;3.40;;;1.67;;
21110;SDS011;10713;51.912;4.494;2024-01-10T07:42:36;2.58;;;1.85;;
21110;SDS011;10713;51.912;4.494;2024-01-10T07:45:02;1.70;;;1.15;;
21110;SDS011;10713;51.912;4.494;2024-01-10T07:47:33;2.85;;;1.65;;
21110;SDS011;10713;51.912;4.494;2024-01-10T07:49:59;5.30;;;1.35;;
21110;SDS011;10713;51.912;4.494;2024-01-10T07:52:24;3.40;;;2.47;;
21110;SDS011;10713;51.912;4.494;2024-01-10T07:54:50;2.17;;;1.25;;
21110;SDS011;10713;51.912;4.494;2024-01-10T07:57:15;4.35;;;1.50;;
21110;SDS011;10713;51.912;4.494;2024-01-10T07:59:43;1.77;;;1.27;;
21110;SDS011;10713;51.912;4.494;2024-01-10T08:02:09;4.05;;;2.25;;
21110;SDS011;10713;51.912;4.494;2024-01-10T08:04:35;8.90;;;1.38;;
21110;SDS011;10713;51.912;4.494;2024-01-10T08:07:00;2.78;;;1.77;;
21110;SDS011;10713;51.912;4.494;2024-01-10T08:09:26;3.95;;;1.10;;
21110;SDS011;10713;51.912;4.494;2024-01-10T08:11:51;5.97;;;2.20;;
21110;SDS011;10713;51.912;4.494;2024-01-10T08:14:17;1.35;;;1.25;;
21110;SDS011;10713;51.912;4.494;2024-01-10T08:16:42;2.10;;;1.83;;
21110;SDS011;10713;51.912;4.494;2024-01-10T08:19:08;3.30;;;1.55;;
21110;SDS011;10713;51.912;4.494;2024-01-10T08:21:33;2.88;;;1.65;;
21110;SDS011;10713;51.912;4.494;2024-01-10T08:23:59;3.20;;;2.30;;
21110;SDS011;10713;51.912;4.494;2024-01-10T08:26:27;2.30;;;1.38;;
21110;SDS011;10713;51.912;4.494;2024-01-10T08:28:52;4.05;;;2.00;;
21110;SDS011;10713;51.912;4.494;2024-01-10T08:31:18;9.48;;;2.50;;
21110;SDS011;10713;51.912;4.494;2024-01-10T08:33:43;3.55;;;1.95;;
21110;SDS011;10713;51.912;4.494;2024-01-10T08:36:09;3.80;;;1.88;;
21110;SDS011;10713;51.912;4.494;2024-01-10T08:38:37;3.53;;;2.20;;
21110;SDS011;10713;51.912;4.494;2024-01-10T08:41:03;3.53;;;2.30;;
21110;SDS011;10713;51.912;4.494;2024-01-10T08:43:29;5.53;;;2.72;;
21110;SDS011;10713;51.912;4.494;2024-01-10T08:45:55;2.17;;;1.73;;
21110;SDS011;10713;51.912;4.494;2024-01-10T08:48:22;5.35;;;2.25;;
21110;SDS011;10713;51.912;4.494;2024-01-10T08:50:48;5.70;;;2.88;;
21110;SDS011;10713;51.912;4.494;2024-01-10T08:53:13;6.53;;;2.03;;
21110;SDS011;10713;51.912;4.494;2024-01-10T08:55:39;4.63;;;2.53;;
21110;SDS011;10713;51.912;4.494;2024-01-10T08:58:04;4.10;;;2.42;;
21110;SDS011;10713;51.912;4.494;2024-01-10T09:00:30;4.60;;;2.20;;
21110;SDS011;10713;51.912;4.494;2024-01-10T09:02:55;6.00;;;3.15;;
21110;SDS011;10713;51.912;4.494;2024-01-10T09:05:20;4.90;;;2.28;;
21110;SDS011;10713;51.912;4.494;2024-01-10T09:07:46;4.78;;;2.45;;
21110;SDS011;10713;51.912;4.494;2024-01-10T09:10:12;4.85;;;2.50;;
21110;SDS011;10713;51.912;4.494;2024-01-10T09:12:38;3.65;;;2.13;;
21110;SDS011;10713;51.912;4.494;2024-01-10T09:15:03;4.85;;;2.30;;
21110;SDS011;10713;51.912;4.494;2024-01-10T09:17:29;6.60;;;2.83;;
21110;SDS011;10713;51.912;4.494;2024-01-10T09:19:54;7.40;;;3.47;;
21110;SDS011;10713;51.912;4.494;2024-01-10T09:22:20;7.18;;;2.75;;
21110;SDS011;10713;51.912;4.494;2024-01-10T09:24:45;6.90;;;2.70;;
21110;SDS011;10713;51.912;4.494;2024-01-10T09:27:11;4.90;;;2.92;;
21110;SDS011;10713;51.912;4.494;2024-01-10T09:29:36;5.25;;;2.72;;
21110;SDS011;10713;51.912;4.494;2024-01-10T09:32:02;9.68;;;2.97;;
21110;SDS011;10713;51.912;4.494;2024-01-10T09:34:28;7.47;;;2.92;;
21110;SDS011;10713;51.912;4.494;2024-01-10T09:36:53;10.13;;;3.17;;
21110;SDS011;10713;51.912;4.494;2024-01-10T09:39:19;4.78;;;2.80;;
21110;SDS011;10713;51.912;4.494;2024-01-10T09:41:47;5.82;;;2.28;;
21110;SDS011;10713;51.912;4.494;2024-01-10T09:44:15;4.78;;;2.40;;
21110;SDS011;10713;51.912;4.494;2024-01-10T09:46:43;6.93;;;3.38;;
21110;SDS011;10713;51.912;4.494;2024-01-10T09:49:13;6.10;;;2.72;;
21110;SDS011;10713;51.912;4.494;2024-01-10T09:51:39;8.68;;;3.20;;
21110;SDS011;10713;51.912;4.494;2024-01-10T09:54:04;4.40;;;2.30;;
21110;SDS011;10713;51.912;4.494;2024-01-10T09:56:30;7.60;;;2.97;;
21110;SDS011;10713;51.912;4.494;2024-01-10T09:58:58;6.00;;;3.35;;
21110;SDS011;10713;51.912;4.494;2024-01-10T10:01:25;13.48;;;2.90;;
21110;SDS011;10713;51.912;4.494;2024-01-10T10:03:52;12.27;;;3.35;;
21110;SDS011;10713;51.912;4.494;2024-01-10T10:06:18;6.20;;;2.35;;
21110;SDS011;10713;51.912;4.494;2024-01-10T10:08:45;5.82;;;2.63;;
21110;SDS011;10713;51.912;4.494;2024-01-10T10:11:13;9.02;;;3.55;;
21110;SDS011;10713;51.912;4.494;2024-01-10T10:13:39;5.43;;;2.50;;
21110;SDS011;10713;51.912;4.494;2024-01-10T10:16:07;6.70;;;3.08;;
21110;SDS011;10713;51.912;4.494;2024-01-10T10:18:34;8.02;;;3.05;;
21110;SDS011;10713;51.912;4.494;2024-01-10T10:21:10;6.85;;;3.10;;
21110;SDS011;10713;51.912;4.494;2024-01-10T10:23:40;6.72;;;2.90;;
21110;SDS011;10713;51.912;4.494;2024-01-10T10:26:14;6.07;;;2.95;;
21110;SDS011;10713;51.912;4.494;2024-01-10T10:28:47;7.63;;;2.72;;
21110;SDS011;10713;51.912;4.494;2024-01-10T10:31:13;5.30;;;2.47;;
21110;SDS011;10713;51.912;4.494;2024-01-10T10:33:39;4.03;;;2.60;;
21110;SDS011;10713;51.912;4.494;2024-01-10T10:36:05;7.75;;;3.25;;
21110;SDS011;10713;51.912;4.494;2024-01-10T10:38:31;8.02;;;2.92;;
21110;SDS011;10713;51.912;4.494;2024-01-10T10:40:58;8.35;;;2.80;;
21110;SDS011;10713;51.912;4.494;2024-01-10T10:43:24;4.57;;;2.33;;
21110;SDS011;10713;51.912;4.494;2024-01-10T10:45:50;10.75;;;2.78;;
21110;SDS011;10713;51.912;4.494;2024-01-10T10:48:19;6.38;;;2.55;;
21110;SDS011;10713;51.912;4.494;2024-01-10T10:53:37;7.45;;;2.92;;
21110;SDS011;10713;51.912;4.494;2024-01-10T10:56:05;6.97;;;2.45;;
21110;SDS011;10713;51.912;4.494;2024-01-10T10:58:33;4.03;;;2.35;;
21110;SDS011;10713;51.912;4.494;2024-01-10T11:01:02;3.60;;;2.40;;
21110;SDS011;10713;51.912;4.494;2024-01-10T11:03:30;4.50;;;1.92;;
21110;SDS011;10713;51.912;4.494;2024-01-10T11:05:56;8.55;;;2.42;;
21110;SDS011;10713;51.912;4.494;2024-01-10T11:08:23;12.00;;;2.88;;
21110;SDS011;10713;51.912;4.494;2024-01-10T11:10:50;3.92;;;2.95;;
21110;SDS011;10713;51.912;4.494;2024-01-10T11:16:13;5.35;;;2.00;;
21110;SDS011;10713;51.912;4.494;2024-01-10T11:24:39;9.45;;;2.92;;
21110;SDS011;10713;51.912;4.494;2024-01-10T11:27:15;5.90;;;2.25;;
21110;SDS011;10713;51.912;4.494;2024-01-10T11:29:41;3.03;;;1.73;;
21110;SDS011;10713;51.912;4.494;2024-01-10T11:32:12;5.80;;;2.15;;
21110;SDS011;10713;51.912;4.494;2024-01-10T11:34:48;2.95;;;2.17;;
21110;SDS011;10713;51.912;4.494;2024-01-10T11:37:39;5.18;;;2.45;;
21110;SDS011;10713;51.912;4.494;2024-01-10T11:40:08;6.60;;;3.00;;
21110;SDS011;10713;51.912;4.494;2024-01-10T11:42:41;4.55;;;2.72;;
21110;SDS011;10713;51.912;4.494;2024-01-10T11:45:07;9.02;;;2.72;;
21110;SDS011;10713;51.912;4.494;2024-01-10T11:47:33;6.95;;;2.67;;
21110;SDS011;10713;51.912;4.494;2024-01-10T11:49:58;7.68;;;3.08;;
21110;SDS011;10713;51.912;4.494;2024-01-10T11:52:34;5.75;;;2.10;;
21110;SDS011;10713;51.912;4.494;2024-01-10T11:55:01;6.60;;;3.20;;
21110;SDS011;10713;51.912;4.494;2024-01-10T11:57:27;9.32;;;2.35;;
21110;SDS011;10713;51.912;4.494;2024-01-10T11:59:56;6.28;;;2.53;;
21110;SDS011;10713;51.912;4.494;2024-01-10T12:02:25;4.22;;;2.40;;
21110;SDS011;10713;51.912;4.494;2024-01-10T12:04:51;5.47;;;2.95;;
21110;SDS011;10713;51.912;4.494;2024-01-10T12:07:17;7.85;;;2.42;;
21110;SDS011;10713;51.912;4.494;2024-01-10T12:09:44;6.55;;;2.42;;
21110;SDS011;10713;51.912;4.494;2024-01-10T12:12:09;8.20;;;2.92;;
21110;SDS011;10713;51.912;4.494;2024-01-10T12:14:38;6.38;;;2.50;;
21110;SDS011;10713;51.912;4.494;2024-01-10T12:17:05;4.55;;;2.15;;
21110;SDS011;10713;51.912;4.494;2024-01-10T12:19:31;2.15;;;1.52;;
21110;SDS011;10713;51.912;4.494;2024-01-10T12:21:57;8.65;;;2.67;;
21110;SDS011;10713;51.912;4.494;2024-01-10T12:24:22;5.80;;;2.30;;
21110;SDS011;10713;51.912;4.494;2024-01-10T12:26:48;7.15;;;3.72;;
21110;SDS011;10713;51.912;4.494;2024-01-10T12:29:17;6.72;;;3.22;;
21110;SDS011;10713;51.912;4.494;2024-01-10T12:31:45;6.47;;;2.92;;
21110;SDS011;10713;51.912;4.494;2024-01-10T12:34:11;8.13;;;2.08;;
21110;SDS011;10713;51.912;4.494;2024-01-10T12:36:36;5.78;;;2.38;;
21110;SDS011;10713;51.912;4.494;2024-01-10T12:39:02;7.07;;;2.17;;
21110;SDS011;10713;51.912;4.494;2024-01-10T12:41:31;8.32;;;2.50;;
21110;SDS011;10713;51.912;4.494;2024-01-10T12:43:58;9.27;;;3.42;;
21110;SDS011;10713;51.912;4.494;2024-01-10T12:46:27;7.75;;;3.25;;
21110;SDS011;10713;51.912;4.494;2024-01-10T12:49:02;6.13;;;2.20;;
21110;SDS011;10713;51.912;4.494;2024-01-10T12:51:30;6.00;;;1.80;;
21110;SDS011;10713;51.912;4.494;2024-01-10T12:53:56;7.45;;;3.33;;
21110;SDS011;10713;51.912;4.494;2024-01-10T12:56:25;7.30;;;2.95;;
21110;SDS011;10713;51.912;4.494;2024-01-10T12:58:52;5.18;;;2.47;;
21110;SDS011;10713;51.912;4.494;2024-01-10T13:01:17;7.38;;;2.70;;
21110;SDS011;10713;51.912;4.494;2024-01-10T13:03:43;7.00;;;2.40;;
21110;SDS011;10713;51.912;4.494;2024-01-10T13:06:08;7.35;;;2.70;;
21110;SDS011;10713;51.912;4.494;2024-01-10T13:08:34;4.60;;;1.88;;
21110;SDS011;10713;51.912;4.494;2024-01-10T13:11:02;3.42;;;2.40;;
21110;SDS011;10713;51.912;4.494;2024-01-10T13:13:34;5.90;;;2.80;;
21110;SDS011;10713;51.912;4.494;2024-01-10T13:16:00;7.90;;;2.55;;
21110;SDS011;10713;51.912;4.494;2024-01-10T13:18:25;10.48;;;2.35;;
21110;SDS011;10713;51.912;4.494;2024-01-10T13:20:53;6.15;;;2.65;;
21110;SDS011;10713;51.912;4.494;2024-01-10T13:23:19;14.00;;;2.78;;
21110;SDS011;10713;51.912;4.494;2024-01-10T13:25:47;6.78;;;3.10;;
21110;SDS011;10713;51.912;4.494;2024-01-10T13:28:13;3.88;;;2.13;;
21110;SDS011;10713;51.912;4.494;2024-01-10T13:30:39;7.63;;;2.95;;
21110;SDS011;10713;51.912;4.494;2024-01-10T13:33:06;4.07;;;2.63;;
21110;SDS011;10713;51.912;4.494;2024-01-10T13:35:32;5.03;;;2.63;;
21110;SDS011;10713;51.912;4.494;2024-01-10T13:37:58;8.60;;;2.88;;
21110;SDS011;10713;51.912;4.494;2024-01-10T13:40:23;3.03;;;2.33;;
21110;SDS011;10713;51.912;4.494;2024-01-10T13:42:51;3.97;;;2.40;;
21110;SDS011;10713;51.912;4.494;2024-01-10T13:45:18;7.80;;;3.08;;
21110;SDS011;10713;51.912;4.494;2024-01-10T13:47:45;9.82;;;2.92;;
21110;SDS011;10713;51.912;4.494;2024-01-10T13:50:11;3.85;;;2.38;;
21110;SDS011;10713;51.912;4.494;2024-01-10T13:52:36;5.80;;;2.65;;
21110;SDS011;10713;51.912;4.494;2024-01-10T13:55:02;6.03;;;2.70;;
21110;SDS011;10713;51.912;4.494;2024-01-10T13:57:31;5.07;;;2.05;;
21110;SDS011;10713;51.912;4.494;2024-01-10T14:00:00;5.38;;;2.72;;
21110;SDS011;10713;51.912;4.494;2024-01-10T14:02:27;2.85;;;2.03;;
21110;SDS011;10713;51.912;4.494;2024-01-10T14:04:52;4.82;;;1.98;;
21110;SDS011;10713;51.912;4.494;2024-01-10T14:07:22;7.88;;;3.03;;
21110;SDS011;10713;51.912;4.494;2024-01-10T14:09:48;5.55;;;2.67;;
21110;SDS011;10713;51.912;4.494;2024-01-10T14:12:13;4.97;;;2.00;;
21110;SDS011;10713;51.912;4.494;2024-01-10T14:14:39;6.93;;;2.70;;
21110;SDS011;10713;51.912;4.494;2024-01-10T14:17:05;8.57;;;3.28;;
21110;SDS011;10713;51.912;4.494;2024-01-10T14:19:30;5.68;;;2.63;;
21110;SDS011;10713;51.912;4.494;2024-01-10T14:21:56;5.97;;;3.25;;
21110;SDS011;10713;51.912;4.494;2024-01-10T14:24:22;3.92;;;1.73;;
21110;SDS011;10713;51.912;4.494;2024-01-10T14:26:48;7.53;;;2.47;;
21110;SDS011;10713;51.912;4.494;2024-01-10T14:29:13;7.22;;;2.90;;
21110;SDS011;10713;51.912;4.494;2024-01-10T14:31:38;8.43;;;2.38;;
21110;SDS011;10713;51.912;4.494;2024-01-10T14:34:05;8.82;;;3.17;;
21110;SDS011;10713;51.912;4.494;2024-01-10T14:36:31;4.45;;;2.13;;
21110;SDS011;10713;51.912;4.494;2024-01-10T14:38:56;9.85;;;2.88;;
21110;SDS011;10713;51.912;4.494;2024-01-10T14:41:21;6.07;;;2.30;;
21110;SDS011;10713;51.912;4.494;2024-01-10T14:43:47;3.60;;;2.38;;
21110;SDS011;10713;51.912;4.494;2024-01-10T14:46:12;4.57;;;2.70;;
21110;SDS011;10713;51.912;4.494;2024-01-10T14:48:38;5.35;;;2.35;;
21110;SDS011;10713;51.912;4.494;2024-01-10T14:51:03;6.47;;;2.50;;
21110;SDS011;10713;51.912;4.494;2024-01-10T14:53:33;4.65;;;2.55;;